Time;durP1;ratioP1;P1;durP2;ratioP2;P2;SDS_P1;SDS_P2;PMS_P1;PMS_P2;Temp;Humidity;BMP_temperature;BMP_pressure;BME280_temperature;BME280_humidity;BME280_pressure;Samples;Min_cycle;Max_cycle;Signal;HPM_P1;HPM_P2
2024/04/16 00:00:50;;;;;;;1.13;0.50;;;6.60;99.90;;;;;;4312947;27;20234;-93
2024/04/16 00:02:51;;;;;;;3.53;0.43;;;6.70;99.90;;;;;;4312641;27;20406;-95
2024/04/16 00:04:52;;;;;;;4.70;0.40;;;6.70;99.90;;;;;;4285503;27;20275;-94
2024/04/16 00:06:53;;;;;;;1.13;0.53;;;6.70;99.90;;;;;;4312743;27;20635;-94
2024/04/16 00:08:54;;;;;;;2.80;0.60;;;6.70;99.90;;;;;;4285581;27;20304;-93
2024/04/16 00:11:02;;;;;;;4.23;0.77;;;6.70;99.90;;;;;;4312700;27;20235;-93
2024/04/16 00:13:04;;;;;;;1.10;0.50;;;6.70;99.90;;;;;;4340406;27;20241;-93
2024/04/16 00:15:30;;;;;;;3.10;0.33;;;6.80;99.90;;;;;;4310654;27;20257;-94
2024/04/16 00:17:33;;;;;;;5.83;0.67;;;6.80;99.90;;;;;;4312516;27;20238;-94
2024/04/16 00:19:34;;;;;;;6.50;0.83;;;6.90;99.90;;;;;;4312551;27;20250;-94
2024/04/16 00:21:34;;;;;;;2.70;0.60;;;6.90;99.90;;;;;;4285271;27;20228;-94
2024/04/16 00:23:35;;;;;;;1.67;0.40;;;6.90;99.90;;;;;;4312454;27;20254;-94
2024/04/16 00:25:36;;;;;;;2.33;0.40;;;6.90;99.90;;;;;;4285105;27;20240;-94
2024/04/16 00:27:38;;;;;;;5.50;0.20;;;6.90;99.90;;;;;;4312175;27;20257;-92
2024/04/16 00:29:39;;;;;;;1.70;0.53;;;7.00;99.90;;;;;;4312261;27;20258;-93
2024/04/16 00:31:40;;;;;;;5.83;0.30;;;7.10;99.90;;;;;;4312229;27;20230;-93
2024/04/16 00:33:41;;;;;;;0.60;0.20;;;7.10;99.90;;;;;;4312231;27;20250;-94
2024/04/16 00:35:43;;;;;;;1.70;0.47;;;7.10;99.90;;;;;;4311918;27;20295;-95
2024/04/16 00:37:44;;;;;;;4.17;0.43;;;7.20;99.90;;;;;;4312412;27;20227;-94
2024/04/16 00:39:46;;;;;;;3.13;1.00;;;7.10;99.90;;;;;;4312137;27;20227;-93
2024/04/16 00:41:48;;;;;;;0.10;0.10;;;7.20;99.90;;;;;;4285149;27;20689;-93
2024/04/16 00:43:49;;;;;;;1.57;0.60;;;7.10;99.90;;;;;;4312017;27;20258;-93
2024/04/16 00:45:58;;;;;;;0.90;0.30;;;7.10;99.90;;;;;;4285024;27;20600;-93
2024/04/16 00:47:59;;;;;;;4.30;0.70;;;7.10;99.90;;;;;;4311895;27;20230;-93
2024/04/16 00:50:00;;;;;;;1.87;0.43;;;7.20;99.90;;;;;;4312188;27;20282;-92
2024/04/16 00:52:03;;;;;;;1.20;0.30;;;7.30;99.90;;;;;;4339556;27;20230;-94
2024/04/16 00:54:05;;;;;;;1.53;0.30;;;7.30;99.90;;;;;;4311938;27;20238;-94
2024/04/16 00:56:07;;;;;;;11.40;0.87;;;7.30;99.90;;;;;;4284622;27;20240;-94
2024/04/16 00:58:09;;;;;;;2.30;0.10;;;7.40;99.90;;;;;;4313065;27;20318;-94
2024/04/16 01:00:10;;;;;;;0.00;0.00;;;7.40;99.90;;;;;;4314593;27;20234;-93
2024/04/16 01:02:11;;;;;;;7.57;0.60;;;7.60;99.90;;;;;;4287277;27;20266;-93
2024/04/16 01:04:12;;;;;;;1.20;0.27;;;7.70;99.90;;;;;;4314950;27;20247;-94
2024/04/16 01:06:12;;;;;;;8.57;0.53;;;7.60;99.90;;;;;;4314022;27;20281;-94
2024/04/16 01:08:13;;;;;;;1.50;0.50;;;7.50;99.90;;;;;;4287068;27;20590;-94
2024/04/16 01:10:14;;;;;;;2.97;0.67;;;7.60;99.90;;;;;;4314151;27;20230;-93
2024/04/16 01:12:15;;;;;;;1.13;0.10;;;7.60;99.90;;;;;;4287051;27;20620;-93
2024/04/16 01:14:16;;;;;;;0.40;0.20;;;7.70;99.90;;;;;;4314166;27;20294;-95
2024/04/16 01:16:17;;;;;;;0.10;0.10;;;7.70;99.90;;;;;;4287247;27;20279;-94
2024/04/16 01:18:18;;;;;;;1.40;0.50;;;7.60;99.90;;;;;;4314471;27;20247;-94
2024/04/16 01:20:18;;;;;;;5.43;0.67;;;7.50;99.90;;;;;;4286891;27;20228;-94
2024/04/16 01:22:20;;;;;;;4.30;0.63;;;7.50;99.90;;;;;;4314203;27;20277;-93
2024/04/16 01:24:23;;;;;;;6.60;0.50;;;7.60;99.90;;;;;;4287008;27;20382;-94
2024/04/16 01:26:25;;;;;;;1.27;0.27;;;7.70;99.90;;;;;;4286915;27;20283;-93
2024/04/16 01:28:26;;;;;;;1.43;0.27;;;7.70;99.90;;;;;;4287346;27;20258;-93
2024/04/16 01:30:27;;;;;;;3.80;0.83;;;7.70;99.90;;;;;;4287268;27;20248;-93
2024/04/16 01:32:27;;;;;;;3.60;0.73;;;7.70;99.90;;;;;;4314448;27;20243;-91
2024/04/16 01:34:28;;;;;;;0.83;0.13;;;7.70;99.90;;;;;;4286982;27;20744;-95
2024/04/16 01:36:29;;;;;;;4.73;0.57;;;7.70;99.90;;;;;;4286815;27;20255;-93
2024/04/16 01:38:30;;;;;;;9.53;0.60;;;7.70;99.90;;;;;;4287094;27;20287;-93
2024/04/16 01:40:31;;;;;;;2.43;0.90;;;7.80;99.90;;;;;;4314085;27;20261;-93
2024/04/16 01:42:32;;;;;;;4.90;0.43;;;7.80;99.90;;;;;;4286828;27;20255;-94
2024/04/16 01:44:34;;;;;;;0.10;0.10;;;7.80;99.90;;;;;;4314187;27;20291;-94
2024/04/16 01:46:36;;;;;;;3.50;0.33;;;7.80;99.90;;;;;;4314168;27;20247;-94
2024/04/16 01:48:37;;;;;;;3.07;0.80;;;7.80;99.90;;;;;;4314033;27;20230;-94
2024/04/16 01:50:38;;;;;;;4.40;1.10;;;7.90;99.90;;;;;;4313986;27;20242;-95
2024/04/16 01:52:39;;;;;;;1.93;0.40;;;8.10;99.90;;;;;;4287111;27;20345;-93
2024/04/16 01:54:40;;;;;;;20.70;0.90;;;8.20;99.90;;;;;;4313866;27;20231;-94
2024/04/16 01:56:41;;;;;;;1.43;0.33;;;8.10;99.90;;;;;;4313487;27;20244;-95
2024/04/16 01:58:42;;;;;;;4.53;0.33;;;8.10;99.90;;;;;;4313656;27;20273;-92
2024/04/16 02:00:44;;;;;;;0.40;0.37;;;8.10;99.90;;;;;;4286427;27;20232;-94
2024/04/16 02:02:45;;;;;;;0.23;0.17;;;8.00;99.90;;;;;;4313753;27;20258;-95
2024/04/16 02:04:45;;;;;;;6.13;0.60;;;8.10;99.90;;;;;;4313584;27;20330;-93
2024/04/16 02:06:46;;;;;;;1.57;0.30;;;8.10;99.90;;;;;;4286228;27;20263;-93
2024/04/16 02:08:47;;;;;;;3.23;0.60;;;8.20;99.90;;;;;;4286404;27;20236;-93
2024/04/16 02:10:57;;;;;;;11.50;0.60;;;8.30;99.90;;;;;;4285920;27;20228;-93
2024/04/16 02:13:01;;;;;;;0.60;0.10;;;8.40;99.90;;;;;;4286804;27;20701;-94
2024/04/16 02:15:01;;;;;;;0.40;0.23;;;8.30;99.90;;;;;;4313923;27;20227;-93
2024/04/16 02:17:03;;;;;;;2.97;0.80;;;8.20;99.90;;;;;;4286326;27;20922;-95
2024/04/16 02:19:04;;;;;;;4.67;0.40;;;8.10;99.90;;;;;;4287323;27;20276;-94
2024/04/16 02:21:05;;;;;;;0.67;0.20;;;8.10;99.90;;;;;;4313941;27;20231;-95
2024/04/16 02:23:06;;;;;;;2.63;0.50;;;8.20;99.90;;;;;;4313586;27;20261;-94
2024/04/16 02:25:10;;;;;;;0.93;0.20;;;8.30;99.90;;;;;;4313375;27;20623;-93
2024/04/16 02:27:11;;;;;;;2.83;0.20;;;8.30;99.90;;;;;;4286392;27;20236;-93
2024/04/16 02:29:11;;;;;;;1.40;0.23;;;8.40;99.90;;;;;;4313941;27;20234;-93
2024/04/16 02:31:12;;;;;;;1.50;0.57;;;8.40;99.90;;;;;;4286536;27;20255;-94
2024/04/16 02:33:15;;;;;;;0.77;0.40;;;8.20;99.90;;;;;;4313879;27;20338;-93
2024/04/16 02:35:16;;;;;;;4.00;0.73;;;8.10;99.90;;;;;;4286517;27;20244;-94
2024/04/16 02:37:17;;;;;;;2.50;0.37;;;8.20;99.90;;;;;;4313713;27;20600;-94
2024/04/16 02:39:18;;;;;;;4.00;0.60;;;7.90;99.90;;;;;;4313739;27;20235;-94
2024/04/16 02:41:22;;;;;;;0.70;0.30;;;7.80;99.90;;;;;;4313989;27;20275;-95
2024/04/16 02:43:23;;;;;;;0.20;0.10;;;7.70;99.90;;;;;;4313514;27;20227;-93
2024/04/16 02:45:23;;;;;;;1.57;0.40;;;7.60;99.90;;;;;;4313512;27;20261;-96
2024/04/16 02:47:27;;;;;;;1.13;0.50;;;7.50;99.90;;;;;;4286328;27;20228;-94
2024/04/16 02:49:28;;;;;;;0.60;0.30;;;7.30;99.90;;;;;;4313447;27;20254;-94
2024/04/16 02:51:28;;;;;;;2.43;0.60;;;7.20;99.90;;;;;;4286217;27;20233;-94
2024/04/16 02:53:29;;;;;;;1.03;0.47;;;7.20;99.90;;;;;;4313194;27;20235;-95
2024/04/16 02:55:30;;;;;;;1.47;0.63;;;7.10;99.90;;;;;;4285709;27;20257;-95
2024/04/16 02:57:31;;;;;;;1.00;0.20;;;7.10;99.90;;;;;;4313486;27;20693;-94
2024/04/16 02:59:32;;;;;;;3.30;0.70;;;7.10;99.90;;;;;;4286075;27;20597;-94
2024/04/16 03:01:33;;;;;;;0.60;0.10;;;7.20;99.90;;;;;;4286405;27;20304;-94
2024/04/16 03:03:36;;;;;;;0.70;0.30;;;7.30;99.90;;;;;;4286229;27;20232;-94
2024/04/16 03:05:36;;;;;;;6.20;0.40;;;7.50;99.90;;;;;;4313205;27;20270;-95
2024/04/16 03:07:37;;;;;;;0.70;0.40;;;7.70;99.90;;;;;;4286488;27;20236;-94
2024/04/16 03:09:38;;;;;;;1.90;0.57;;;7.70;99.90;;;;;;4286209;27;20232;-94
2024/04/16 03:11:39;;;;;;;1.13;0.50;;;7.80;99.90;;;;;;4286274;27;20236;-94
2024/04/16 03:13:40;;;;;;;8.07;1.47;;;7.60;99.90;;;;;;4286880;27;20240;-94
2024/04/16 03:15:41;;;;;;;1.13;0.43;;;7.70;99.90;;;;;;4314413;27;20263;-94
2024/04/16 03:17:42;;;;;;;1.00;0.20;;;7.90;99.90;;;;;;4313281;27;20257;-94
2024/04/16 03:19:43;;;;;;;5.83;1.13;;;7.90;99.90;;;;;;4286192;27;20229;-94
2024/04/16 03:21:46;;;;;;;7.30;0.90;;;8.10;99.90;;;;;;4313728;27;20314;-95
2024/04/16 03:23:48;;;;;;;2.87;0.67;;;8.00;99.90;;;;;;4313082;27;20258;-95
2024/04/16 03:25:49;;;;;;;3.27;1.17;;;7.90;99.90;;;;;;4315079;27;20243;-95
2024/04/16 03:27:52;;;;;;;1.77;0.40;;;7.70;99.90;;;;;;4313920;27;20826;-94
2024/04/16 03:29:53;;;;;;;1.50;0.57;;;7.70;99.90;;;;;;4313517;27;20254;-94
2024/04/16 03:32:01;;;;;;;1.20;0.60;;;7.80;99.90;;;;;;4288334;27;20231;-94
2024/04/16 03:34:03;;;;;;;2.73;0.83;;;7.80;99.90;;;;;;4313722;27;20253;-94
2024/04/16 03:36:09;;;;;;;4.43;0.37;;;7.80;99.90;;;;;;4286240;27;20274;-96
2024/04/16 03:38:10;;;;;;;1.03;0.40;;;7.80;99.90;;;;;;4286754;27;20739;-95
2024/04/16 03:40:14;;;;;;;1.27;0.50;;;7.60;99.90;;;;;;4313598;27;20254;-93
2024/04/16 03:42:15;;;;;;;2.90;0.60;;;7.70;99.90;;;;;;4313866;27;20550;-95
2024/04/16 03:44:19;;;;;;;7.40;0.60;;;7.60;99.90;;;;;;4287188;27;20327;-95
2024/04/16 03:46:22;;;;;;;3.77;0.63;;;7.70;99.90;;;;;;4285913;27;20307;-95
2024/04/16 03:48:24;;;;;;;5.23;0.63;;;7.70;99.90;;;;;;4312679;27;20238;-96
2024/04/16 03:50:28;;;;;;;4.00;0.67;;;7.70;99.90;;;;;;4313075;27;20326;-95
2024/04/16 03:52:31;;;;;;;7.10;0.40;;;7.60;99.90;;;;;;4313339;27;20314;-94
2024/04/16 03:54:32;;;;;;;3.40;0.70;;;7.60;99.90;;;;;;4286152;27;20248;-96
2024/04/16 03:56:38;;;;;;;9.13;1.23;;;7.80;99.90;;;;;;4286093;27;20269;-95
2024/04/16 03:58:53;;;;;;;18.27;2.17;;;7.80;99.90;;;;;;4286820;27;20236;-93
2024/04/16 04:01:00;;;;;;;5.17;1.20;;;8.00;99.90;;;;;;4285962;27;20255;-96
2024/04/16 04:03:01;;;;;;;4.17;0.90;;;8.00;99.90;;;;;;4312616;27;20253;-94
2024/04/16 04:05:08;;;;;;;2.23;0.97;;;8.10;99.90;;;;;;4312635;27;20231;-96
2024/04/16 04:07:29;;;;;;;2.00;0.43;;;7.90;99.90;;;;;;4313421;27;20265;-95
2024/04/16 04:09:29;;;;;;;0.33;0.30;;;8.00;99.90;;;;;;4312892;27;20234;-94
2024/04/16 04:11:33;;;;;;;2.47;0.70;;;7.80;99.90;;;;;;4312912;27;20290;-95
2024/04/16 04:13:33;;;;;;;1.63;0.50;;;7.90;99.90;;;;;;4313015;27;20231;-94
2024/04/16 04:15:39;;;;;;;1.13;0.50;;;7.90;99.90;;;;;;4285159;27;20274;-94
2024/04/16 04:17:40;;;;;;;5.20;1.30;;;7.90;99.90;;;;;;4312894;27;20288;-95
2024/04/16 04:19:41;;;;;;;3.43;0.90;;;7.80;99.90;;;;;;4285917;27;20593;-95
2024/04/16 04:21:41;;;;;;;2.90;0.57;;;7.90;99.90;;;;;;4312430;27;20231;-94
2024/04/16 04:23:42;;;;;;;3.87;0.40;;;7.90;99.90;;;;;;4285706;27;20332;-94
2024/04/16 04:25:43;;;;;;;1.53;0.50;;;7.90;99.90;;;;;;4285307;27;20278;-96
2024/04/16 04:27:44;;;;;;;1.80;0.63;;;8.00;99.90;;;;;;4286276;27;20232;-94
2024/04/16 04:29:45;;;;;;;6.33;0.67;;;7.90;99.90;;;;;;4312528;27;20314;-94
2024/04/16 04:31:48;;;;;;;5.03;0.80;;;8.10;99.90;;;;;;4285677;27;20578;-94
2024/04/16 04:33:50;;;;;;;5.53;0.57;;;8.00;99.90;;;;;;4285224;27;20352;-95
2024/04/16 04:35:51;;;;;;;1.50;0.67;;;7.90;99.90;;;;;;4340425;27;20242;-96
2024/04/16 04:37:51;;;;;;;5.83;0.30;;;7.80;99.90;;;;;;4285204;27;20573;-95
2024/04/16 04:39:53;;;;;;;7.87;0.57;;;7.70;99.90;;;;;;4285478;27;20284;-94
2024/04/16 04:41:56;;;;;;;1.20;0.30;;;7.70;99.90;;;;;;4312603;27;20307;-93
2024/04/16 04:43:57;;;;;;;2.80;0.37;;;7.70;99.90;;;;;;4312691;27;20226;-93
2024/04/16 04:45:58;;;;;;;3.90;0.60;;;7.80;99.90;;;;;;4285333;27;20243;-94
2024/04/16 04:48:22;;;;;;;3.93;0.57;;;7.80;99.90;;;;;;4285967;27;20682;-95
2024/04/16 04:50:30;;;;;;;2.30;0.27;;;7.80;99.90;;;;;;4287275;27;20297;-95
2024/04/16 04:52:31;;;;;;;2.43;0.60;;;7.80;99.90;;;;;;4313094;27;20243;-94
2024/04/16 04:54:39;;;;;;;2.40;0.37;;;7.80;99.90;;;;;;4312798;27;20227;-96
2024/04/16 04:56:40;;;;;;;5.97;0.83;;;7.90;99.90;;;;;;4285764;27;20286;-95
2024/04/16 04:58:42;;;;;;;12.87;0.93;;;7.70;99.90;;;;;;4312613;27;20314;-94
2024/04/16 05:00:43;;;;;;;2.60;0.60;;;7.60;99.90;;;;;;4286296;27;20296;-96
2024/04/16 05:02:53;;;;;;;1.10;0.50;;;7.70;99.90;;;;;;4312752;27;20726;-95
2024/04/16 05:04:54;;;;;;;1.50;0.40;;;7.70;99.90;;;;;;4312593;27;20296;-96
2024/04/16 05:07:00;;;;;;;0.90;0.60;;;7.80;99.90;;;;;;4285309;27;20244;-94
2024/04/16 05:09:10;;;;;;;2.53;0.30;;;7.80;99.90;;;;;;4314865;27;20238;-96
2024/04/16 05:11:21;;;;;;;4.20;0.60;;;7.70;99.90;;;;;;4287061;27;20262;-96
2024/04/16 05:13:39;;;;;;;4.10;0.70;;;7.80;99.90;;;;;;4313839;27;20227;-95
2024/04/16 05:16:06;;;;;;;1.90;0.50;;;7.90;99.90;;;;;;4314405;27;20272;-95
2024/04/16 05:18:30;;;;;;;1.50;0.50;;;8.10;99.90;;;;;;4314709;27;20219;-94
2024/04/16 05:21:10;;;;;;;4.97;0.90;;;8.10;99.90;;;;;;4314873;27;20235;-96
2024/04/16 05:24:24;;;;;;;;;;;;;;;;;;;;;
2024/04/16 05:26:38;;;;;;;1.13;0.40;;;8.10;99.90;;;;;;4318043;27;20239;-94
2024/04/16 05:32:04;;;;;;;3.23;0.67;;;7.90;99.90;;;;;;4319927;27;20253;-95
2024/04/16 05:34:25;;;;;;;4.20;0.80;;;8.00;99.90;;;;;;4316618;27;20235;-95
2024/04/16 05:37:20;;;;;;;5.70;0.43;;;8.10;99.90;;;;;;4287182;27;20267;-95
2024/04/16 05:39:55;;;;;;;1.83;0.50;;;8.10;99.90;;;;;;4264115;27;20253;-95
2024/04/16 05:42:02;;;;;;;16.47;4.23;;;8.10;99.90;;;;;;4286160;27;20228;-94
2024/04/16 05:44:21;;;;;;;3.30;1.30;;;8.10;99.90;;;;;;4316423;27;20270;-95
2024/04/16 05:46:30;;;;;;;9.07;6.53;;;8.10;99.90;;;;;;4315989;27;20251;-96
2024/04/16 05:48:48;;;;;;;4.60;1.47;;;8.10;99.90;;;;;;4344535;27;20714;-94
2024/04/16 05:51:22;;;;;;;2.00;0.63;;;8.20;99.90;;;;;;4292399;27;20262;-95
2024/04/16 05:53:26;;;;;;;8.47;1.90;;;8.30;99.90;;;;;;4316769;27;20274;-95
2024/04/16 05:55:39;;;;;;;5.20;0.70;;;8.30;99.90;;;;;;4288311;27;20260;-95
2024/04/16 05:57:40;;;;;;;3.23;0.60;;;8.30;99.90;;;;;;4316475;27;20253;-94
2024/04/16 05:59:50;;;;;;;3.67;0.87;;;8.30;99.90;;;;;;4315377;27;20234;-96
2024/04/16 06:02:00;;;;;;;5.63;0.80;;;8.40;99.90;;;;;;4317351;27;20314;-94
2024/04/16 06:09:19;;;;;;;2.93;0.60;;;8.40;99.90;;;;;;4262186;27;20294;-96
2024/04/16 06:11:54;;;;;;;3.73;0.73;;;8.40;99.90;;;;;;4301206;27;20235;-93
2024/04/16 06:14:13;;;;;;;2.13;0.53;;;8.50;99.90;;;;;;4318030;27;20235;-94
2024/04/16 06:16:49;;;;;;;1.37;0.40;;;8.50;99.90;;;;;;4340915;27;20234;-95
2024/04/16 06:18:53;;;;;;;7.20;3.53;;;8.60;99.90;;;;;;4315741;27;20246;-95
2024/04/16 06:21:12;;;;;;;5.43;0.60;;;8.60;99.90;;;;;;4314952;27;20266;-94
2024/04/16 06:23:16;;;;;;;1.53;0.80;;;8.60;99.90;;;;;;4288855;27;20243;-95
2024/04/16 06:25:17;;;;;;;4.10;0.83;;;8.60;99.90;;;;;;4315476;27;20254;-93
2024/04/16 06:28:08;;;;;;;2.80;0.90;;;8.70;99.90;;;;;;4289282;27;20244;-94
2024/04/16 06:30:12;;;;;;;0.27;0.27;;;8.80;99.90;;;;;;4302723;27;20287;-94
2024/04/16 06:32:25;;;;;;;16.57;1.20;;;8.70;99.90;;;;;;4289958;27;20236;-96
2024/04/16 06:34:31;;;;;;;9.43;0.40;;;8.80;99.90;;;;;;4317385;27;20231;-95
2024/04/16 06:36:33;;;;;;;6.60;0.57;;;8.80;99.90;;;;;;4316091;27;20243;-94
2024/04/16 06:38:34;;;;;;;1.40;0.60;;;8.80;99.90;;;;;;4314898;27;20623;-96
2024/04/16 06:40:39;;;;;;;2.13;0.70;;;8.80;99.90;;;;;;4315753;27;20227;-94
2024/04/16 06:43:01;;;;;;;3.80;0.70;;;9.00;99.90;;;;;;4341419;27;20648;-96
2024/04/16 06:45:04;;;;;;;3.53;0.60;;;9.00;99.90;;;;;;4315867;27;20697;-95
2024/04/16 06:47:05;;;;;;;7.50;0.90;;;9.10;99.90;;;;;;4316143;27;20243;-94
2024/04/16 06:49:09;;;;;;;5.50;0.90;;;9.10;99.90;;;;;;4315427;27;20739;-95
2024/04/16 06:51:18;;;;;;;5.37;0.40;;;9.20;99.90;;;;;;4315945;27;20685;-95
2024/04/16 06:53:41;;;;;;;1.23;0.47;;;9.40;99.90;;;;;;4316922;27;20250;-96
2024/04/16 06:56:04;;;;;;;1.17;0.43;;;9.50;99.90;;;;;;4313253;27;20254;-94
2024/04/16 06:58:18;;;;;;;2.55;1.15;;;9.50;99.90;;;;;;4316782;27;20230;-94
2024/04/16 07:00:20;;;;;;;3.53;0.53;;;9.70;99.90;;;;;;4315753;27;20235;-94
2024/04/16 07:02:27;;;;;;;4.57;0.80;;;9.70;99.90;;;;;;4341357;27;20285;-95
2024/04/16 07:04:28;;;;;;;5.57;0.82;;;9.60;99.90;;;;;;4314232;27;20230;-95
2024/04/16 07:06:37;;;;;;;2.07;0.50;;;9.70;99.90;;;;;;4313818;27;20606;-94
2024/04/16 07:08:38;;;;;;;3.07;0.40;;;9.80;99.90;;;;;;4313474;27;20261;-94
2024/04/16 07:10:49;;;;;;;7.67;0.67;;;10.00;99.90;;;;;;4286812;27;20240;-96
2024/04/16 07:13:01;;;;;;;3.50;0.47;;;10.00;99.90;;;;;;4314740;27;20223;-95
2024/04/16 07:15:02;;;;;;;2.07;0.90;;;9.80;99.90;;;;;;4288453;27;20236;-95
2024/04/16 07:17:14;;;;;;;0.50;0.30;;;9.90;99.90;;;;;;4287530;27;20278;-95
2024/04/16 07:19:23;;;;;;;5.40;0.47;;;10.00;99.90;;;;;;4287740;27;20239;-93
2024/04/16 07:21:29;;;;;;;1.87;0.87;;;10.00;99.90;;;;;;4320559;27;20715;-95
2024/04/16 07:23:31;;;;;;;5.78;0.63;;;10.00;99.90;;;;;;4330306;27;20223;-92
2024/04/16 07:25:33;;;;;;;7.53;1.52;;;10.10;99.90;;;;;;4304758;27;20236;-93
2024/04/16 07:27:33;;;;;;;1.58;0.30;;;10.30;99.90;;;;;;4294651;27;20660;-94
2024/04/16 07:29:37;;;;;;;9.68;0.98;;;10.20;99.90;;;;;;4286321;27;20236;-93
2024/04/16 07:31:41;;;;;;;2.47;0.93;;;10.00;99.90;;;;;;4287985;27;20251;-94
2024/04/16 07:33:41;;;;;;;3.20;0.30;;;10.10;99.90;;;;;;4287271;27;20227;-94
2024/04/16 07:35:47;;;;;;;1.02;0.60;;;10.30;99.90;;;;;;4314005;27;20239;-95
2024/04/16 07:37:48;;;;;;;2.67;0.38;;;10.40;99.90;;;;;;4313913;27;20269;-94
2024/04/16 07:39:51;;;;;;;5.97;0.38;;;10.70;99.90;;;;;;4314033;27;20227;-95
2024/04/16 07:41:52;;;;;;;1.15;0.40;;;10.70;99.90;;;;;;4313207;27;20235;-93
2024/04/16 07:43:53;;;;;;;2.80;0.30;;;10.70;99.90;;;;;;4312924;27;20724;-96
2024/04/16 07:45:54;;;;;;;2.72;0.65;;;10.80;99.90;;;;;;4287892;27;20244;-93
2024/04/16 07:47:55;;;;;;;3.13;0.75;;;10.60;99.90;;;;;;4286113;27;20341;-94
2024/04/16 07:49:56;;;;;;;4.18;0.30;;;10.30;99.90;;;;;;4312531;27;20261;-95
2024/04/16 07:52:00;;;;;;;3.42;0.32;;;10.30;99.90;;;;;;4286958;27;20618;-94
2024/04/16 07:54:01;;;;;;;5.07;0.88;;;10.40;99.90;;;;;;4313639;27;20253;-94
2024/04/16 07:56:02;;;;;;;1.83;0.22;;;10.30;99.90;;;;;;4285704;27;20247;-94
2024/04/16 07:58:03;;;;;;;3.05;0.30;;;10.30;99.90;;;;;;4312990;27;20242;-93
2024/04/16 08:00:05;;;;;;;5.30;0.70;;;10.20;99.90;;;;;;4312593;27;20235;-95
2024/04/16 08:02:13;;;;;;;4.05;0.40;;;10.40;99.90;;;;;;4339497;27;20229;-94
2024/04/16 08:04:13;;;;;;;3.58;0.57;;;10.30;99.90;;;;;;4312615;27;20243;-94
2024/04/16 08:06:14;;;;;;;2.22;0.70;;;10.30;99.90;;;;;;4312562;27;20298;-95
2024/04/16 08:08:15;;;;;;;5.13;0.40;;;10.40;99.90;;;;;;4311272;27;20274;-93
2024/04/16 08:10:17;;;;;;;1.92;0.32;;;10.60;99.90;;;;;;4258948;27;20730;-94
2024/04/16 08:12:20;;;;;;;2.53;0.30;;;10.70;99.90;;;;;;4286356;27;20232;-95
2024/04/16 08:14:22;;;;;;;0.93;0.30;;;10.60;99.90;;;;;;4312685;27;20688;-95
2024/04/16 08:16:25;;;;;;;0.63;0.30;;;10.30;99.90;;;;;;4314002;27;20299;-94
2024/04/16 08:18:27;;;;;;;2.15;0.43;;;10.30;99.90;;;;;;4313572;27;20235;-95
2024/04/16 08:20:30;;;;;;;1.20;0.38;;;10.30;99.90;;;;;;4312574;27;20277;-94
2024/04/16 08:22:31;;;;;;;3.55;0.43;;;10.40;99.90;;;;;;4338336;22;20261;-93
2024/04/16 08:24:31;;;;;;;2.53;0.63;;;10.50;99.90;;;;;;4285595;27;20255;-94
2024/04/16 08:26:32;;;;;;;1.90;0.60;;;10.60;99.90;;;;;;4340309;27;20276;-93
2024/04/16 08:28:34;;;;;;;2.25;0.75;;;10.50;99.90;;;;;;4285932;27;20240;-92
2024/04/16 08:30:35;;;;;;;1.23;0.17;;;10.60;99.90;;;;;;4285787;27;20327;-93
2024/04/16 08:32:36;;;;;;;6.32;1.00;;;10.70;99.90;;;;;;4285229;27;20236;-93
2024/04/16 08:34:40;;;;;;;4.72;0.35;;;10.60;99.90;;;;;;4312251;27;20295;-95
2024/04/16 08:36:41;;;;;;;5.63;0.63;;;10.60;99.90;;;;;;4285482;27;20244;-93
2024/04/16 08:38:42;;;;;;;0.65;0.20;;;10.50;99.90;;;;;;4315146;27;20749;-93
2024/04/16 08:40:45;;;;;;;4.35;1.30;;;10.60;99.90;;;;;;4286154;27;20808;-92
2024/04/16 08:42:46;;;;;;;1.08;0.30;;;10.70;99.90;;;;;;4285259;27;20609;-93
2024/04/16 08:44:48;;;;;;;1.20;0.60;;;10.60;99.90;;;;;;4285965;27;20275;-92
2024/04/16 08:46:49;;;;;;;2.47;0.40;;;10.50;99.90;;;;;;4288281;27;20343;-92
2024/04/16 08:48:53;;;;;;;2.05;0.47;;;10.60;99.90;;;;;;4286818;27;20244;-92
2024/04/16 08:50:56;;;;;;;2.92;0.47;;;10.60;99.90;;;;;;4318235;27;20310;-93
2024/04/16 08:52:58;;;;;;;0.30;0.20;;;10.40;99.90;;;;;;4315069;27;20242;-93
2024/04/16 08:55:00;;;;;;;6.15;0.52;;;10.30;99.90;;;;;;4289790;27;20228;-91
2024/04/16 08:57:01;;;;;;;1.40;0.20;;;10.30;99.90;;;;;;4287958;27;20303;-91
2024/04/16 08:59:02;;;;;;;0.43;0.20;;;10.50;99.90;;;;;;4312219;27;20234;-90
2024/04/16 09:01:06;;;;;;;0.40;0.30;;;10.60;99.90;;;;;;4285656;27;20262;-90
2024/04/16 09:03:06;;;;;;;3.67;0.35;;;10.50;99.90;;;;;;4285501;27;20254;-89
2024/04/16 09:05:08;;;;;;;0.47;0.47;;;10.50;99.90;;;;;;4311604;27;20231;-89
2024/04/16 09:07:09;;;;;;;0.93;0.60;;;10.40;99.90;;;;;;4285947;27;20236;-89
2024/04/16 09:09:10;;;;;;;3.88;0.52;;;10.40;99.90;;;;;;4284634;27;20236;-92
2024/04/16 09:11:12;;;;;;;2.30;0.50;;;10.60;99.90;;;;;;4284831;27;20327;-93
2024/04/16 09:13:13;;;;;;;1.67;0.57;;;10.50;99.90;;;;;;4284680;27;20300;-95
2024/04/16 09:15:18;;;;;;;0.65;0.30;;;10.70;99.90;;;;;;4286060;27;20244;-92
2024/04/16 09:17:19;;;;;;;3.20;0.68;;;10.70;99.90;;;;;;4311710;27;20235;-92
2024/04/16 09:19:23;;;;;;;2.50;0.50;;;10.60;99.90;;;;;;4313283;27;20334;-93
2024/04/16 09:21:24;;;;;;;2.33;0.43;;;10.60;99.90;;;;;;4288111;27;20232;-92
2024/04/16 09:23:25;;;;;;;2.00;0.47;;;10.70;99.90;;;;;;4314763;27;20316;-92
2024/04/16 09:25:26;;;;;;;6.57;0.80;;;10.60;99.90;;;;;;4286766;27;20284;-93
2024/04/16 09:27:27;;;;;;;2.75;0.47;;;10.60;99.90;;;;;;4343131;27;20595;-92
2024/04/16 09:29:28;;;;;;;2.90;0.50;;;10.70;99.90;;;;;;4287632;27;20232;-91
2024/04/16 09:31:29;;;;;;;0.20;0.20;;;10.70;99.90;;;;;;4314416;27;20231;-92
2024/04/16 09:33:31;;;;;;;0.95;0.30;;;10.60;99.90;;;;;;4314201;27;20235;-92
2024/04/16 09:35:32;;;;;;;0.50;0.30;;;10.60;99.90;;;;;;4314323;27;20298;-93
2024/04/16 09:37:33;;;;;;;4.20;0.20;;;10.60;99.90;;;;;;4287174;27;20244;-90
2024/04/16 09:39:34;;;;;;;3.95;0.40;;;10.50;99.90;;;;;;4287362;27;20256;-91
2024/04/16 09:41:38;;;;;;;1.02;0.52;;;10.50;99.90;;;;;;4287192;27;20236;-91
2024/04/16 09:43:43;;;;;;;0.38;0.35;;;10.30;99.90;;;;;;4287153;27;20330;-89
2024/04/16 09:45:47;;;;;;;4.72;0.70;;;10.20;99.90;;;;;;4314063;27;20259;-90
2024/04/16 09:47:49;;;;;;;0.90;0.52;;;10.00;99.90;;;;;;4287340;27;20267;-91
2024/04/16 09:49:54;;;;;;;1.13;0.38;;;9.80;99.90;;;;;;4287415;27;20259;-90
2024/04/16 09:51:56;;;;;;;0.32;0.10;;;9.80;99.90;;;;;;4287976;27;20232;-90
2024/04/16 09:53:57;;;;;;;3.05;0.40;;;9.80;99.90;;;;;;4287137;27;20326;-91
2024/04/16 09:55:59;;;;;;;3.40;0.20;;;9.60;99.90;;;;;;4314324;27;20259;-90
2024/04/16 09:58:02;;;;;;;1.85;0.45;;;9.70;99.90;;;;;;4286968;27;20268;-89
2024/04/16 10:00:04;;;;;;;3.93;0.20;;;9.70;99.90;;;;;;4287760;27;20236;-91
2024/04/16 10:02:10;;;;;;;2.00;0.30;;;9.60;99.90;;;;;;4314795;27;20333;-90
2024/04/16 10:04:11;;;;;;;1.20;0.53;;;9.60;99.90;;;;;;4287674;27;20231;-91
2024/04/16 10:06:12;;;;;;;1.88;0.57;;;9.70;99.90;;;;;;4286806;27;20803;-90
2024/04/16 10:08:14;;;;;;;0.82;0.32;;;9.90;99.90;;;;;;4314035;27;20262;-90
2024/04/16 10:10:15;;;;;;;2.47;0.82;;;10.60;99.90;;;;;;4286733;27;20232;-90
2024/04/16 10:12:16;;;;;;;0.30;0.25;;;10.80;99.90;;;;;;4287110;27;20232;-90
2024/04/16 10:14:20;;;;;;;1.60;0.40;;;11.10;99.90;;;;;;4288360;27;20278;-91
2024/04/16 10:16:21;;;;;;;8.48;0.85;;;11.50;99.90;;;;;;4315823;27;20644;-92
2024/04/16 10:18:22;;;;;;;0.73;0.30;;;11.70;99.90;;;;;;4291066;27;20235;-90
2024/04/16 10:20:28;;;;;;;1.05;0.47;;;11.80;99.90;;;;;;4286853;27;20322;-90
2024/04/16 10:22:36;;;;;;;4.88;0.65;;;11.60;99.90;;;;;;4286887;27;20240;-91
2024/04/16 10:24:37;;;;;;;2.10;0.43;;;11.70;99.90;;;;;;4286472;27;20232;-89
2024/04/16 10:26:41;;;;;;;3.38;1.17;;;11.90;99.90;;;;;;4286839;27;20343;-90
2024/04/16 10:28:42;;;;;;;0.98;0.68;;;11.40;99.90;;;;;;4287134;27;20400;-91
2024/04/16 10:30:44;;;;;;;3.40;0.57;;;11.10;99.90;;;;;;4285958;27;20233;-92
2024/04/16 10:32:47;;;;;;;0.35;0.13;;;10.50;99.90;;;;;;4342369;27;20260;-90
2024/04/16 10:34:48;;;;;;;1.05;0.20;;;10.30;99.90;;;;;;4287745;27;20714;-90
2024/04/16 10:36:53;;;;;;;0.35;0.08;;;10.60;99.90;;;;;;4313690;27;20287;-90
2024/04/16 10:38:55;;;;;;;2.92;0.45;;;10.60;99.90;;;;;;4286838;27;20232;-90
2024/04/16 10:40:56;;;;;;;2.05;0.75;;;10.50;99.90;;;;;;4287880;27;20296;-91
2024/04/16 10:43:01;;;;;;;2.53;0.85;;;10.60;99.90;;;;;;4286375;27;20306;-91
2024/04/16 10:45:03;;;;;;;4.47;0.45;;;10.80;99.90;;;;;;4287050;27;20284;-90
2024/04/16 10:47:06;;;;;;;2.97;0.30;;;11.10;99.90;;;;;;4286790;27;20286;-91
2024/04/16 10:49:07;;;;;;;0.30;0.20;;;11.40;99.90;;;;;;4313418;27;20230;-91
2024/04/16 10:51:15;;;;;;;4.95;0.50;;;11.50;99.90;;;;;;4286266;27;20232;-92
2024/04/16 10:53:18;;;;;;;1.40;0.40;;;11.70;99.90;;;;;;4286285;27;20236;-90
2024/04/16 10:55:20;;;;;;;0.15;0.10;;;11.80;99.90;;;;;;4286729;27;20682;-91
2024/04/16 10:57:22;;;;;;;1.00;0.30;;;11.90;99.90;;;;;;4315070;27;20294;-91
2024/04/16 10:59:25;;;;;;;6.85;0.30;;;11.60;99.90;;;;;;4286535;27;20276;-90
2024/04/16 11:01:26;;;;;;;0.63;0.30;;;11.60;99.90;;;;;;4286135;27;20338;-91
2024/04/16 11:03:27;;;;;;;1.08;0.30;;;11.70;99.90;;;;;;4259466;27;20248;-90